sensor_id;sensor_type;location;lat;lon;timestamp;temperature;humidity
12130;DHT22;6128;59.340;18.040;2023-05-10T00:01:52;9.80;77.00
12130;DHT22;6128;59.340;18.040;2023-05-10T00:04:19;9.80;77.50
12130;DHT22;6128;59.340;18.040;2023-05-10T00:06:46;9.80;77.90
12130;DHT22;6128;59.340;18.040;2023-05-10T00:09:13;9.80;78.10
12130;DHT22;6128;59.340;18.040;2023-05-10T00:11:42;9.70;78.20
12130;DHT22;6128;59.340;18.040;2023-05-10T00:14:09;9.70;78.50
12130;DHT22;6128;59.340;18.040;2023-05-10T00:16:36;9.70;79.00
12130;DHT22;6128;59.340;18.040;2023-05-10T00:19:03;9.70;79.20
12130;DHT22;6128;59.340;18.040;2023-05-10T00:21:30;9.70;79.50
12130;DHT22;6128;59.340;18.040;2023-05-10T00:23:59;9.60;79.60
12130;DHT22;6128;59.340;18.040;2023-05-10T00:26:26;9.60;79.60
12130;DHT22;6128;59.340;18.040;2023-05-10T00:28:54;9.60;79.60
12130;DHT22;6128;59.340;18.040;2023-05-10T00:31:22;9.50;79.90
12130;DHT22;6128;59.340;18.040;2023-05-10T00:33:49;9.50;80.00
12130;DHT22;6128;59.340;18.040;2023-05-10T00:36:16;9.50;80.10
12130;DHT22;6128;59.340;18.040;2023-05-10T00:38:43;9.40;80.50
12130;DHT22;6128;59.340;18.040;2023-05-10T00:41:11;9.40;80.90
12130;DHT22;6128;59.340;18.040;2023-05-10T00:43:38;9.40;81.40
12130;DHT22;6128;59.340;18.040;2023-05-10T00:46:07;9.40;81.40
12130;DHT22;6128;59.340;18.040;2023-05-10T00:48:34;9.30;81.40
12130;DHT22;6128;59.340;18.040;2023-05-10T00:51:02;9.30;81.70
12130;DHT22;6128;59.340;18.040;2023-05-10T00:53:31;9.30;81.70
12130;DHT22;6128;59.340;18.040;2023-05-10T00:55:59;9.30;82.00
12130;DHT22;6128;59.340;18.040;2023-05-10T00:58:27;9.20;82.00
12130;DHT22;6128;59.340;18.040;2023-05-10T01:00:56;9.20;82.20
12130;DHT22;6128;59.340;18.040;2023-05-10T01:03:26;9.20;82.40
12130;DHT22;6128;59.340;18.040;2023-05-10T01:05:53;9.20;82.30
12130;DHT22;6128;59.340;18.040;2023-05-10T01:08:21;9.10;82.60
12130;DHT22;6128;59.340;18.040;2023-05-10T01:10:48;9.10;82.60
12130;DHT22;6128;59.340;18.040;2023-05-10T01:13:23;9.10;82.80
12130;DHT22;6128;59.340;18.040;2023-05-10T01:15:54;9.10;83.20
12130;DHT22;6128;59.340;18.040;2023-05-10T01:18:22;9.10;83.70
12130;DHT22;6128;59.340;18.040;2023-05-10T01:21:01;9.10;84.10
12130;DHT22;6128;59.340;18.040;2023-05-10T01:23:51;9.00;84.20
12130;DHT22;6128;59.340;18.040;2023-05-10T01:26:49;9.00;84.80
12130;DHT22;6128;59.340;18.040;2023-05-10T01:29:40;9.00;85.00
12130;DHT22;6128;59.340;18.040;2023-05-10T01:32:24;8.90;85.40
12130;DHT22;6128;59.340;18.040;2023-05-10T01:35:00;8.90;85.40
12130;DHT22;6128;59.340;18.040;2023-05-10T01:37:33;8.90;85.50
12130;DHT22;6128;59.340;18.040;2023-05-10T01:40:08;8.90;85.70
12130;DHT22;6128;59.340;18.040;2023-05-10T01:42:43;8.80;85.60
12130;DHT22;6128;59.340;18.040;2023-05-10T01:45:18;8.80;85.50
12130;DHT22;6128;59.340;18.040;2023-05-10T01:47:52;8.80;85.30
12130;DHT22;6128;59.340;18.040;2023-05-10T01:50:27;8.80;85.30
12130;DHT22;6128;59.340;18.040;2023-05-10T01:52:58;8.70;85.40
12130;DHT22;6128;59.340;18.040;2023-05-10T01:55:28;8.70;85.40
12130;DHT22;6128;59.340;18.040;2023-05-10T01:58:01;8.70;85.40
12130;DHT22;6128;59.340;18.040;2023-05-10T02:00:30;8.70;85.70
12130;DHT22;6128;59.340;18.040;2023-05-10T02:03:01;8.70;85.90
12130;DHT22;6128;59.340;18.040;2023-05-10T02:05:32;8.60;86.00
12130;DHT22;6128;59.340;18.040;2023-05-10T02:08:00;8.60;86.10
12130;DHT22;6128;59.340;18.040;2023-05-10T02:10:28;8.60;86.20
12130;DHT22;6128;59.340;18.040;2023-05-10T02:12:58;8.60;86.30
12130;DHT22;6128;59.340;18.040;2023-05-10T02:15:26;8.60;86.30
12130;DHT22;6128;59.340;18.040;2023-05-10T02:17:55;8.60;86.30
12130;DHT22;6128;59.340;18.040;2023-05-10T02:20:25;8.60;86.50
12130;DHT22;6128;59.340;18.040;2023-05-10T02:22:55;8.60;86.70
12130;DHT22;6128;59.340;18.040;2023-05-10T02:25:23;8.60;86.70
12130;DHT22;6128;59.340;18.040;2023-05-10T02:27:53;8.50;87.00
12130;DHT22;6128;59.340;18.040;2023-05-10T02:30:22;8.60;87.20
12130;DHT22;6128;59.340;18.040;2023-05-10T02:32:50;8.50;87.30
12130;DHT22;6128;59.340;18.040;2023-05-10T02:35:19;8.50;87.30
12130;DHT22;6128;59.340;18.040;2023-05-10T02:37:48;8.50;87.20
12130;DHT22;6128;59.340;18.040;2023-05-10T02:40:16;8.50;87.20
12130;DHT22;6128;59.340;18.040;2023-05-10T02:42:44;8.50;87.20
12130;DHT22;6128;59.340;18.040;2023-05-10T02:45:18;8.40;87.40
12130;DHT22;6128;59.340;18.040;2023-05-10T02:47:46;8.40;87.40
12130;DHT22;6128;59.340;18.040;2023-05-10T02:50:13;8.50;87.60
12130;DHT22;6128;59.340;18.040;2023-05-10T02:52:44;8.50;87.80
12130;DHT22;6128;59.340;18.040;2023-05-10T02:55:15;8.50;88.00
12130;DHT22;6128;59.340;18.040;2023-05-10T02:57:48;8.50;88.00
12130;DHT22;6128;59.340;18.040;2023-05-10T03:00:18;8.50;88.00
12130;DHT22;6128;59.340;18.040;2023-05-10T03:02:45;8.50;88.30
12130;DHT22;6128;59.340;18.040;2023-05-10T03:05:13;8.50;88.10
12130;DHT22;6128;59.340;18.040;2023-05-10T03:07:40;8.50;88.40
12130;DHT22;6128;59.340;18.040;2023-05-10T03:10:08;8.50;88.60
12130;DHT22;6128;59.340;18.040;2023-05-10T03:12:53;8.50;89.00
12130;DHT22;6128;59.340;18.040;2023-05-10T03:15:32;8.50;89.10
12130;DHT22;6128;59.340;18.040;2023-05-10T03:18:07;8.60;89.30
12130;DHT22;6128;59.340;18.040;2023-05-10T03:20:38;8.60;89.70
12130;DHT22;6128;59.340;18.040;2023-05-10T03:23:12;8.60;89.80
12130;DHT22;6128;59.340;18.040;2023-05-10T03:25:40;8.70;89.90
12130;DHT22;6128;59.340;18.040;2023-05-10T03:28:11;8.70;89.80
12130;DHT22;6128;59.340;18.040;2023-05-10T03:30:39;8.70;89.60
12130;DHT22;6128;59.340;18.040;2023-05-10T03:33:07;8.80;89.60
12130;DHT22;6128;59.340;18.040;2023-05-10T03:35:34;8.80;89.50
12130;DHT22;6128;59.340;18.040;2023-05-10T03:38:02;8.80;89.50
12130;DHT22;6128;59.340;18.040;2023-05-10T03:40:29;8.90;89.50
12130;DHT22;6128;59.340;18.040;2023-05-10T03:42:57;8.90;89.70
12130;DHT22;6128;59.340;18.040;2023-05-10T03:45:26;8.90;89.90
12130;DHT22;6128;59.340;18.040;2023-05-10T03:47:53;8.90;89.80
12130;DHT22;6128;59.340;18.040;2023-05-10T03:50:21;8.90;89.90
12130;DHT22;6128;59.340;18.040;2023-05-10T03:52:48;8.90;90.10
12130;DHT22;6128;59.340;18.040;2023-05-10T03:55:15;8.90;90.10
12130;DHT22;6128;59.340;18.040;2023-05-10T03:57:43;9.00;90.10
12130;DHT22;6128;59.340;18.040;2023-05-10T04:00:11;9.00;90.10
12130;DHT22;6128;59.340;18.040;2023-05-10T04:02:39;9.10;90.20
12130;DHT22;6128;59.340;18.040;2023-05-10T04:05:07;9.10;90.20
12130;DHT22;6128;59.340;18.040;2023-05-10T04:07:34;9.10;90.20
12130;DHT22;6128;59.340;18.040;2023-05-10T04:10:02;9.20;90.30
12130;DHT22;6128;59.340;18.040;2023-05-10T04:12:29;9.20;90.20
12130;DHT22;6128;59.340;18.040;2023-05-10T04:14:56;9.30;90.20
12130;DHT22;6128;59.340;18.040;2023-05-10T04:17:23;9.30;90.20
12130;DHT22;6128;59.340;18.040;2023-05-10T04:19:52;9.40;90.10
12130;DHT22;6128;59.340;18.040;2023-05-10T04:22:20;9.50;90.00
12130;DHT22;6128;59.340;18.040;2023-05-10T04:24:47;9.50;90.00
12130;DHT22;6128;59.340;18.040;2023-05-10T04:27:14;9.60;90.00
12130;DHT22;6128;59.340;18.040;2023-05-10T04:29:41;9.60;90.10
12130;DHT22;6128;59.340;18.040;2023-05-10T04:32:10;9.70;90.10
12130;DHT22;6128;59.340;18.040;2023-05-10T04:34:42;9.70;90.00
12130;DHT22;6128;59.340;18.040;2023-05-10T04:37:10;9.80;90.00
12130;DHT22;6128;59.340;18.040;2023-05-10T04:39:38;10.00;89.80
12130;DHT22;6128;59.340;18.040;2023-05-10T04:42:05;10.00;89.40
12130;DHT22;6128;59.340;18.040;2023-05-10T04:44:32;10.10;89.20
12130;DHT22;6128;59.340;18.040;2023-05-10T04:47:00;10.20;89.00
12130;DHT22;6128;59.340;18.040;2023-05-10T04:49:28;10.20;88.70
12130;DHT22;6128;59.340;18.040;2023-05-10T04:51:55;10.40;88.40
12130;DHT22;6128;59.340;18.040;2023-05-10T04:54:25;10.40;88.20
12130;DHT22;6128;59.340;18.040;2023-05-10T04:56:52;10.50;88.20
12130;DHT22;6128;59.340;18.040;2023-05-10T04:59:19;10.60;88.20
12130;DHT22;6128;59.340;18.040;2023-05-10T05:01:46;10.70;88.00
12130;DHT22;6128;59.340;18.040;2023-05-10T05:04:13;10.70;88.00
12130;DHT22;6128;59.340;18.040;2023-05-10T05:06:41;10.80;87.90
12130;DHT22;6128;59.340;18.040;2023-05-10T05:09:08;10.90;87.80
12130;DHT22;6128;59.340;18.040;2023-05-10T05:11:37;11.00;87.70
12130;DHT22;6128;59.340;18.040;2023-05-10T05:14:05;11.00;87.50
12130;DHT22;6128;59.340;18.040;2023-05-10T05:16:32;11.10;87.50
12130;DHT22;6128;59.340;18.040;2023-05-10T05:19:00;11.10;87.40
12130;DHT22;6128;59.340;18.040;2023-05-10T05:21:27;11.20;87.30
12130;DHT22;6128;59.340;18.040;2023-05-10T05:23:54;11.30;87.20
12130;DHT22;6128;59.340;18.040;2023-05-10T05:26:22;11.40;87.00
12130;DHT22;6128;59.340;18.040;2023-05-10T05:28:50;11.50;86.90
12130;DHT22;6128;59.340;18.040;2023-05-10T05:31:20;11.50;86.80
12130;DHT22;6128;59.340;18.040;2023-05-10T05:33:47;11.60;86.70
12130;DHT22;6128;59.340;18.040;2023-05-10T05:36:14;11.70;86.40
12130;DHT22;6128;59.340;18.040;2023-05-10T05:38:41;11.80;86.30
12130;DHT22;6128;59.340;18.040;2023-05-10T05:41:08;11.90;86.20
12130;DHT22;6128;59.340;18.040;2023-05-10T05:43:36;12.00;86.20
12130;DHT22;6128;59.340;18.040;2023-05-10T05:46:04;12.00;86.10
12130;DHT22;6128;59.340;18.040;2023-05-10T05:48:31;12.10;86.00
12130;DHT22;6128;59.340;18.040;2023-05-10T05:50:58;12.20;85.90
12130;DHT22;6128;59.340;18.040;2023-05-10T05:53:26;12.30;85.80
12130;DHT22;6128;59.340;18.040;2023-05-10T05:55:53;12.40;85.60
12130;DHT22;6128;59.340;18.040;2023-05-10T05:58:21;12.50;85.40
12130;DHT22;6128;59.340;18.040;2023-05-10T06:00:48;12.70;85.30
12130;DHT22;6128;59.340;18.040;2023-05-10T06:03:17;13.20;85.30
12130;DHT22;6128;59.340;18.040;2023-05-10T06:05:44;14.10;85.60
12130;DHT22;6128;59.340;18.040;2023-05-10T06:08:11;15.20;85.80
12130;DHT22;6128;59.340;18.040;2023-05-10T06:10:38;16.10;86.20
12130;DHT22;6128;59.340;18.040;2023-05-10T06:13:05;16.90;86.60
12130;DHT22;6128;59.340;18.040;2023-05-10T06:15:32;17.50;86.90
12130;DHT22;6128;59.340;18.040;2023-05-10T06:18:00;18.30;87.30
12130;DHT22;6128;59.340;18.040;2023-05-10T06:20:28;19.10;87.50
12130;DHT22;6128;59.340;18.040;2023-05-10T06:22:57;19.80;87.50
12130;DHT22;6128;59.340;18.040;2023-05-10T06:25:24;20.30;87.00
12130;DHT22;6128;59.340;18.040;2023-05-10T06:27:51;20.70;86.10
12130;DHT22;6128;59.340;18.040;2023-05-10T06:30:23;21.10;85.40
12130;DHT22;6128;59.340;18.040;2023-05-10T06:32:53;21.50;84.00
12130;DHT22;6128;59.340;18.040;2023-05-10T06:35:20;22.00;83.10
12130;DHT22;6128;59.340;18.040;2023-05-10T06:37:49;22.40;82.80
12130;DHT22;6128;59.340;18.040;2023-05-10T06:40:17;22.90;82.40
12130;DHT22;6128;59.340;18.040;2023-05-10T06:42:44;23.30;81.70
12130;DHT22;6128;59.340;18.040;2023-05-10T06:45:12;23.60;81.10
12130;DHT22;6128;59.340;18.040;2023-05-10T06:47:39;23.70;79.70
12130;DHT22;6128;59.340;18.040;2023-05-10T06:50:07;23.60;78.70
12130;DHT22;6128;59.340;18.040;2023-05-10T06:52:35;23.60;77.20
12130;DHT22;6128;59.340;18.040;2023-05-10T06:55:04;23.70;76.90
12130;DHT22;6128;59.340;18.040;2023-05-10T06:57:31;23.90;75.80
12130;DHT22;6128;59.340;18.040;2023-05-10T06:59:59;24.00;75.60
12130;DHT22;6128;59.340;18.040;2023-05-10T07:02:26;24.10;75.00
12130;DHT22;6128;59.340;18.040;2023-05-10T07:04:53;24.20;74.80
12130;DHT22;6128;59.340;18.040;2023-05-10T07:07:20;24.30;74.10
12130;DHT22;6128;59.340;18.040;2023-05-10T07:09:47;24.10;73.40
12130;DHT22;6128;59.340;18.040;2023-05-10T07:12:16;24.30;72.50
12130;DHT22;6128;59.340;18.040;2023-05-10T07:14:44;24.60;72.00
12130;DHT22;6128;59.340;18.040;2023-05-10T07:17:11;25.00;71.60
12130;DHT22;6128;59.340;18.040;2023-05-10T07:19:41;25.30;71.00
12130;DHT22;6128;59.340;18.040;2023-05-10T07:22:09;25.60;69.00
12130;DHT22;6128;59.340;18.040;2023-05-10T07:24:37;25.50;68.70
12130;DHT22;6128;59.340;18.040;2023-05-10T07:27:05;25.30;68.20
12130;DHT22;6128;59.340;18.040;2023-05-10T07:29:37;25.30;67.50
12130;DHT22;6128;59.340;18.040;2023-05-10T07:32:05;25.60;66.90
12130;DHT22;6128;59.340;18.040;2023-05-10T07:34:32;25.30;65.60
12130;DHT22;6128;59.340;18.040;2023-05-10T07:37:00;25.30;64.90
12130;DHT22;6128;59.340;18.040;2023-05-10T07:39:28;25.50;64.40
12130;DHT22;6128;59.340;18.040;2023-05-10T07:41:55;25.50;63.90
12130;DHT22;6128;59.340;18.040;2023-05-10T07:44:22;25.50;63.30
12130;DHT22;6128;59.340;18.040;2023-05-10T07:46:51;25.40;62.90
12130;DHT22;6128;59.340;18.040;2023-05-10T07:49:18;25.30;62.20
12130;DHT22;6128;59.340;18.040;2023-05-10T07:51:45;24.90;61.60
12130;DHT22;6128;59.340;18.040;2023-05-10T07:54:12;24.50;61.00
12130;DHT22;6128;59.340;18.040;2023-05-10T07:56:40;24.00;60.00
12130;DHT22;6128;59.340;18.040;2023-05-10T07:59:15;23.90;59.40
12130;DHT22;6128;59.340;18.040;2023-05-10T08:01:43;23.50;58.50
12130;DHT22;6128;59.340;18.040;2023-05-10T08:04:11;23.40;58.20
12130;DHT22;6128;59.340;18.040;2023-05-10T08:06:39;23.20;57.90
12130;DHT22;6128;59.340;18.040;2023-05-10T08:09:07;22.80;57.70
12130;DHT22;6128;59.340;18.040;2023-05-10T08:11:34;22.40;57.60
12130;DHT22;6128;59.340;18.040;2023-05-10T08:14:01;22.10;57.30
12130;DHT22;6128;59.340;18.040;2023-05-10T08:16:28;22.10;57.40
12130;DHT22;6128;59.340;18.040;2023-05-10T08:18:55;22.00;57.20
12130;DHT22;6128;59.340;18.040;2023-05-10T08:21:24;22.00;57.10
12130;DHT22;6128;59.340;18.040;2023-05-10T08:23:52;22.10;57.00
12130;DHT22;6128;59.340;18.040;2023-05-10T08:26:19;22.20;56.70
12130;DHT22;6128;59.340;18.040;2023-05-10T08:28:47;22.10;56.60
12130;DHT22;6128;59.340;18.040;2023-05-10T08:31:14;22.10;56.50
12130;DHT22;6128;59.340;18.040;2023-05-10T08:33:41;22.10;56.20
12130;DHT22;6128;59.340;18.040;2023-05-10T08:36:09;22.00;56.00
12130;DHT22;6128;59.340;18.040;2023-05-10T08:38:37;22.20;55.70
12130;DHT22;6128;59.340;18.040;2023-05-10T08:41:05;22.40;55.70
12130;DHT22;6128;59.340;18.040;2023-05-10T08:43:32;22.70;55.70
12130;DHT22;6128;59.340;18.040;2023-05-10T08:46:01;22.80;55.70
12130;DHT22;6128;59.340;18.040;2023-05-10T08:48:29;22.60;55.80
12130;DHT22;6128;59.340;18.040;2023-05-10T08:50:58;22.50;55.80
12130;DHT22;6128;59.340;18.040;2023-05-10T08:53:26;22.70;56.10
12130;DHT22;6128;59.340;18.040;2023-05-10T08:55:57;22.80;56.10
12130;DHT22;6128;59.340;18.040;2023-05-10T08:58:24;22.70;56.00
12130;DHT22;6128;59.340;18.040;2023-05-10T09:00:52;23.00;56.00
12130;DHT22;6128;59.340;18.040;2023-05-10T09:03:19;23.60;56.40
12130;DHT22;6128;59.340;18.040;2023-05-10T09:05:46;24.00;56.50
12130;DHT22;6128;59.340;18.040;2023-05-10T09:08:14;24.40;56.80
12130;DHT22;6128;59.340;18.040;2023-05-10T09:10:43;24.80;57.20
12130;DHT22;6128;59.340;18.040;2023-05-10T09:13:14;24.60;56.90
12130;DHT22;6128;59.340;18.040;2023-05-10T09:15:44;24.60;56.30
12130;DHT22;6128;59.340;18.040;2023-05-10T09:18:11;24.60;55.80
12130;DHT22;6128;59.340;18.040;2023-05-10T09:20:38;24.50;55.30
12130;DHT22;6128;59.340;18.040;2023-05-10T09:23:06;23.90;54.70
12130;DHT22;6128;59.340;18.040;2023-05-10T09:25:33;22.90;53.70
12130;DHT22;6128;59.340;18.040;2023-05-10T09:28:00;22.10;52.80
12130;DHT22;6128;59.340;18.040;2023-05-10T09:30:30;21.30;52.00
12130;DHT22;6128;59.340;18.040;2023-05-10T09:32:59;20.50;51.40
12130;DHT22;6128;59.340;18.040;2023-05-10T09:35:28;19.90;51.10
12130;DHT22;6128;59.340;18.040;2023-05-10T09:37:56;19.50;50.60
12130;DHT22;6128;59.340;18.040;2023-05-10T09:40:24;19.30;50.30
12130;DHT22;6128;59.340;18.040;2023-05-10T09:42:54;19.40;50.00
12130;DHT22;6128;59.340;18.040;2023-05-10T09:45:22;19.30;50.00
12130;DHT22;6128;59.340;18.040;2023-05-10T09:47:51;19.20;50.00
12130;DHT22;6128;59.340;18.040;2023-05-10T09:50:19;19.20;50.00
12130;DHT22;6128;59.340;18.040;2023-05-10T09:52:48;19.20;50.10
12130;DHT22;6128;59.340;18.040;2023-05-10T09:55:16;19.10;50.10
12130;DHT22;6128;59.340;18.040;2023-05-10T09:57:44;19.10;50.10
12130;DHT22;6128;59.340;18.040;2023-05-10T10:00:17;19.00;50.20
12130;DHT22;6128;59.340;18.040;2023-05-10T10:02:46;19.00;50.20
12130;DHT22;6128;59.340;18.040;2023-05-10T10:05:15;18.90;50.20
12130;DHT22;6128;59.340;18.040;2023-05-10T10:07:42;18.70;50.10
12130;DHT22;6128;59.340;18.040;2023-05-10T10:10:10;18.60;50.00
12130;DHT22;6128;59.340;18.040;2023-05-10T10:12:41;18.60;49.90
12130;DHT22;6128;59.340;18.040;2023-05-10T10:15:08;18.60;49.90
12130;DHT22;6128;59.340;18.040;2023-05-10T10:17:36;18.70;49.70
12130;DHT22;6128;59.340;18.040;2023-05-10T10:20:06;18.70;49.70
12130;DHT22;6128;59.340;18.040;2023-05-10T10:22:35;18.70;49.70
12130;DHT22;6128;59.340;18.040;2023-05-10T10:25:04;18.60;49.70
12130;DHT22;6128;59.340;18.040;2023-05-10T10:27:39;18.60;49.70
12130;DHT22;6128;59.340;18.040;2023-05-10T10:30:17;18.60;49.60
12130;DHT22;6128;59.340;18.040;2023-05-10T10:33:04;18.60;49.60
12130;DHT22;6128;59.340;18.040;2023-05-10T10:35:35;18.50;49.50
12130;DHT22;6128;59.340;18.040;2023-05-10T10:38:04;18.60;49.60
12130;DHT22;6128;59.340;18.040;2023-05-10T10:40:34;18.70;49.60
12130;DHT22;6128;59.340;18.040;2023-05-10T10:43:22;18.70;49.70
12130;DHT22;6128;59.340;18.040;2023-05-10T10:46:12;18.60;49.70
12130;DHT22;6128;59.340;18.040;2023-05-10T10:48:40;18.50;49.70
12130;DHT22;6128;59.340;18.040;2023-05-10T10:51:07;18.50;49.70
12130;DHT22;6128;59.340;18.040;2023-05-10T10:53:37;18.50;49.70
12130;DHT22;6128;59.340;18.040;2023-05-10T10:56:07;18.50;49.70
12130;DHT22;6128;59.340;18.040;2023-05-10T10:58:35;18.50;49.70
12130;DHT22;6128;59.340;18.040;2023-05-10T11:01:11;18.50;49.80
12130;DHT22;6128;59.340;18.040;2023-05-10T11:03:38;18.50;49.70
12130;DHT22;6128;59.340;18.040;2023-05-10T11:06:05;18.60;49.70
12130;DHT22;6128;59.340;18.040;2023-05-10T11:08:41;18.70;49.70
12130;DHT22;6128;59.340;18.040;2023-05-10T11:11:09;18.70;49.70
12130;DHT22;6128;59.340;18.040;2023-05-10T11:13:42;18.80;49.70
12130;DHT22;6128;59.340;18.040;2023-05-10T11:16:14;18.80;49.70
12130;DHT22;6128;59.340;18.040;2023-05-10T11:18:53;18.80;49.70
12130;DHT22;6128;59.340;18.040;2023-05-10T11:21:20;18.70;49.60
12130;DHT22;6128;59.340;18.040;2023-05-10T11:23:50;18.70;49.50
12130;DHT22;6128;59.340;18.040;2023-05-10T11:26:18;18.70;49.30
12130;DHT22;6128;59.340;18.040;2023-05-10T11:28:49;18.70;49.20
12130;DHT22;6128;59.340;18.040;2023-05-10T11:31:18;18.70;49.00
12130;DHT22;6128;59.340;18.040;2023-05-10T11:33:46;18.60;48.90
12130;DHT22;6128;59.340;18.040;2023-05-10T11:36:16;18.50;48.90
12130;DHT22;6128;59.340;18.040;2023-05-10T11:38:43;18.60;48.80
12130;DHT22;6128;59.340;18.040;2023-05-10T11:41:12;18.60;48.70
12130;DHT22;6128;59.340;18.040;2023-05-10T11:43:40;18.50;48.70
12130;DHT22;6128;59.340;18.040;2023-05-10T11:46:09;18.60;48.80
12130;DHT22;6128;59.340;18.040;2023-05-10T11:48:37;18.60;48.80
12130;DHT22;6128;59.340;18.040;2023-05-10T11:51:06;18.70;48.90
12130;DHT22;6128;59.340;18.040;2023-05-10T11:53:34;18.80;48.90
12130;DHT22;6128;59.340;18.040;2023-05-10T11:56:05;18.70;49.00
12130;DHT22;6128;59.340;18.040;2023-05-10T11:58:34;18.70;49.00
12130;DHT22;6128;59.340;18.040;2023-05-10T12:01:02;18.70;49.00
12130;DHT22;6128;59.340;18.040;2023-05-10T12:03:30;18.70;49.10
12130;DHT22;6128;59.340;18.040;2023-05-10T12:05:58;18.70;49.10
12130;DHT22;6128;59.340;18.040;2023-05-10T12:08:27;18.70;49.20
12130;DHT22;6128;59.340;18.040;2023-05-10T12:11:05;18.60;49.20
12130;DHT22;6128;59.340;18.040;2023-05-10T12:13:37;18.70;49.20
12130;DHT22;6128;59.340;18.040;2023-05-10T12:16:16;18.70;49.30
12130;DHT22;6128;59.340;18.040;2023-05-10T12:18:43;18.70;49.30
12130;DHT22;6128;59.340;18.040;2023-05-10T12:21:11;18.60;49.40
12130;DHT22;6128;59.340;18.040;2023-05-10T12:23:39;18.70;49.50
12130;DHT22;6128;59.340;18.040;2023-05-10T12:26:07;18.70;49.70
12130;DHT22;6128;59.340;18.040;2023-05-10T12:28:37;18.80;49.80
12130;DHT22;6128;59.340;18.040;2023-05-10T12:31:05;18.70;49.90
12130;DHT22;6128;59.340;18.040;2023-05-10T12:33:36;18.60;49.90
12130;DHT22;6128;59.340;18.040;2023-05-10T12:36:05;18.60;50.00
12130;DHT22;6128;59.340;18.040;2023-05-10T12:38:34;18.60;50.00
12130;DHT22;6128;59.340;18.040;2023-05-10T12:41:05;18.70;50.00
12130;DHT22;6128;59.340;18.040;2023-05-10T12:43:32;18.80;50.00
12130;DHT22;6128;59.340;18.040;2023-05-10T12:46:06;18.80;50.10
12130;DHT22;6128;59.340;18.040;2023-05-10T12:48:34;18.80;50.10
12130;DHT22;6128;59.340;18.040;2023-05-10T12:51:02;18.70;50.20
12130;DHT22;6128;59.340;18.040;2023-05-10T12:53:29;18.60;50.10
12130;DHT22;6128;59.340;18.040;2023-05-10T12:55:56;18.50;50.10
12130;DHT22;6128;59.340;18.040;2023-05-10T12:58:24;18.40;50.00
12130;DHT22;6128;59.340;18.040;2023-05-10T13:00:51;18.40;50.00
12130;DHT22;6128;59.340;18.040;2023-05-10T13:03:20;18.30;50.10
12130;DHT22;6128;59.340;18.040;2023-05-10T13:05:47;18.30;50.10
12130;DHT22;6128;59.340;18.040;2023-05-10T13:08:14;18.30;50.10
12130;DHT22;6128;59.340;18.040;2023-05-10T13:10:41;18.30;50.10
12130;DHT22;6128;59.340;18.040;2023-05-10T13:13:08;18.20;50.10
12130;DHT22;6128;59.340;18.040;2023-05-10T13:15:36;18.20;50.10
12130;DHT22;6128;59.340;18.040;2023-05-10T13:18:03;18.20;50.20
12130;DHT22;6128;59.340;18.040;2023-05-10T13:20:32;18.30;50.20
12130;DHT22;6128;59.340;18.040;2023-05-10T13:22:59;18.20;50.20
12130;DHT22;6128;59.340;18.040;2023-05-10T13:25:26;18.30;50.20
12130;DHT22;6128;59.340;18.040;2023-05-10T13:27:54;18.30;50.20
12130;DHT22;6128;59.340;18.040;2023-05-10T13:30:21;18.30;50.20
12130;DHT22;6128;59.340;18.040;2023-05-10T13:32:49;18.30;50.10
12130;DHT22;6128;59.340;18.040;2023-05-10T13:35:17;18.30;50.10
12130;DHT22;6128;59.340;18.040;2023-05-10T13:37:46;18.20;50.10
12130;DHT22;6128;59.340;18.040;2023-05-10T13:40:13;18.10;50.10
12130;DHT22;6128;59.340;18.040;2023-05-10T13:42:41;18.00;50.10
12130;DHT22;6128;59.340;18.040;2023-05-10T13:45:09;18.00;50.10
12130;DHT22;6128;59.340;18.040;2023-05-10T13:47:37;18.20;50.20
12130;DHT22;6128;59.340;18.040;2023-05-10T13:50:05;18.20;50.20
12130;DHT22;6128;59.340;18.040;2023-05-10T13:52:32;18.20;50.40
12130;DHT22;6128;59.340;18.040;2023-05-10T13:55:01;18.10;50.50
12130;DHT22;6128;59.340;18.040;2023-05-10T13:57:28;18.00;50.60
12130;DHT22;6128;59.340;18.040;2023-05-10T13:59:56;18.00;50.60
12130;DHT22;6128;59.340;18.040;2023-05-10T14:02:23;18.00;50.60
12130;DHT22;6128;59.340;18.040;2023-05-10T14:04:53;18.10;50.70
12130;DHT22;6128;59.340;18.040;2023-05-10T14:07:20;18.10;50.70
12130;DHT22;6128;59.340;18.040;2023-05-10T14:09:47;18.20;50.80
12130;DHT22;6128;59.340;18.040;2023-05-10T14:12:16;18.20;50.90
12130;DHT22;6128;59.340;18.040;2023-05-10T14:14:43;18.30;50.90
12130;DHT22;6128;59.340;18.040;2023-05-10T14:17:10;18.10;50.90
12130;DHT22;6128;59.340;18.040;2023-05-10T14:19:38;18.10;50.90
12130;DHT22;6128;59.340;18.040;2023-05-10T14:22:05;18.00;50.90
12130;DHT22;6128;59.340;18.040;2023-05-10T14:24:32;17.90;50.80
12130;DHT22;6128;59.340;18.040;2023-05-10T14:26:59;17.90;50.70
12130;DHT22;6128;59.340;18.040;2023-05-10T14:29:28;17.80;50.60
12130;DHT22;6128;59.340;18.040;2023-05-10T14:31:55;17.80;50.50
12130;DHT22;6128;59.340;18.040;2023-05-10T14:34:22;17.80;50.40
12130;DHT22;6128;59.340;18.040;2023-05-10T14:36:50;17.90;50.40
12130;DHT22;6128;59.340;18.040;2023-05-10T14:39:17;17.90;50.40
12130;DHT22;6128;59.340;18.040;2023-05-10T14:41:44;17.90;50.30
12130;DHT22;6128;59.340;18.040;2023-05-10T14:44:12;17.90;50.30
12130;DHT22;6128;59.340;18.040;2023-05-10T14:46:42;17.80;50.30
12130;DHT22;6128;59.340;18.040;2023-05-10T14:49:09;17.80;50.30
12130;DHT22;6128;59.340;18.040;2023-05-10T14:51:36;17.90;50.30
12130;DHT22;6128;59.340;18.040;2023-05-10T14:54:04;17.90;50.30
12130;DHT22;6128;59.340;18.040;2023-05-10T14:56:31;17.90;50.30
12130;DHT22;6128;59.340;18.040;2023-05-10T14:58:58;17.80;50.20
12130;DHT22;6128;59.340;18.040;2023-05-10T15:01:26;17.70;50.10
12130;DHT22;6128;59.340;18.040;2023-05-10T15:03:54;17.70;50.00
12130;DHT22;6128;59.340;18.040;2023-05-10T15:06:23;17.70;50.00
12130;DHT22;6128;59.340;18.040;2023-05-10T15:08:51;17.70;49.90
12130;DHT22;6128;59.340;18.040;2023-05-10T15:11:18;17.70;49.80
12130;DHT22;6128;59.340;18.040;2023-05-10T15:13:46;17.70;49.80
12130;DHT22;6128;59.340;18.040;2023-05-10T15:16:13;17.60;49.80
12130;DHT22;6128;59.340;18.040;2023-05-10T15:18:41;17.60;49.80
12130;DHT22;6128;59.340;18.040;2023-05-10T15:21:09;17.50;49.80
12130;DHT22;6128;59.340;18.040;2023-05-10T15:23:36;17.50;49.80
12130;DHT22;6128;59.340;18.040;2023-05-10T15:26:03;17.40;49.60
12130;DHT22;6128;59.340;18.040;2023-05-10T15:28:31;17.30;49.60
12130;DHT22;6128;59.340;18.040;2023-05-10T15:30:58;17.30;49.50
12130;DHT22;6128;59.340;18.040;2023-05-10T15:33:25;17.20;49.50
12130;DHT22;6128;59.340;18.040;2023-05-10T15:35:53;17.20;49.40
12130;DHT22;6128;59.340;18.040;2023-05-10T15:38:21;17.20;49.40
12130;DHT22;6128;59.340;18.040;2023-05-10T15:40:49;17.20;49.60
12130;DHT22;6128;59.340;18.040;2023-05-10T15:43:16;17.10;49.70
12130;DHT22;6128;59.340;18.040;2023-05-10T15:45:43;17.10;49.70